Time;durP1;ratioP1;P1;durP2;ratioP2;P2;SDS_P1;SDS_P2;PMS_P1;PMS_P2;Temp;Humidity;BMP_temperature;BMP_pressure;BME280_temperature;BME280_humidity;BME280_pressure;Samples;Min_cycle;Max_cycle;Signal;HPM_P1;HPM_P2
2023/08/30 00:00:58;;;;;;;7.38;5.30;;;;;;;13.69;75.83;100800.91;5005380;28;20025;-66
2023/08/30 00:03:24;;;;;;;6.75;5.68;;;;;;;13.70;75.59;100797.31;5008331;28;20034;-65
2023/08/30 00:05:49;;;;;;;6.00;4.80;;;;;;;13.78;75.69;100789.78;5008635;28;20144;-65
2023/08/30 00:08:18;;;;;;;6.68;5.40;;;;;;;13.83;75.04;100791.34;5009001;28;20397;-66
2023/08/30 00:10:44;;;;;;;5.80;4.97;;;;;;;13.72;75.88;100790.13;5011419;28;20440;-65
2023/08/30 00:13:09;;;;;;;6.13;4.80;;;;;;;13.65;75.71;100795.84;5007527;28;20058;-65
2023/08/30 00:15:34;;;;;;;5.22;4.35;;;;;;;13.72;75.59;100791.94;5008154;28;20500;-65
2023/08/30 00:18:00;;;;;;;6.45;4.70;;;;;;;13.71;74.93;100788.41;5010005;28;20026;-65
2023/08/30 00:20:26;;;;;;;6.35;4.60;;;;;;;13.78;74.55;100791.59;5009706;28;20109;-65
2023/08/30 00:22:52;;;;;;;6.82;4.80;;;;;;;13.67;75.60;100788.66;5002743;28;20117;-65
2023/08/30 00:25:17;;;;;;;8.65;4.82;;;;;;;13.64;74.57;100780.84;5010795;28;20100;-66
2023/08/30 00:27:43;;;;;;;6.60;4.95;;;;;;;13.64;74.80;100779.06;5000405;28;20026;-66
2023/08/30 00:30:09;;;;;;;6.32;4.80;;;;;;;13.67;75.25;100783.34;5008254;28;20026;-66
2023/08/30 00:32:35;;;;;;;5.90;5.18;;;;;;;13.70;75.15;100784.03;5005965;28;20041;-66
2023/08/30 00:35:01;;;;;;;6.28;5.35;;;;;;;13.73;74.69;100780.34;5011698;28;20040;-66
2023/08/30 00:37:26;;;;;;;7.88;5.10;;;;;;;13.70;74.97;100781.38;5006100;28;20441;-66
2023/08/30 00:39:51;;;;;;;7.03;5.13;;;;;;;13.71;74.41;100771.63;5006658;28;20058;-66
2023/08/30 00:42:16;;;;;;;6.15;4.90;;;;;;;13.74;74.45;100774.09;5005914;28;21083;-66
2023/08/30 00:44:42;;;;;;;6.13;4.93;;;;;;;13.72;74.54;100763.56;5004804;28;20037;-66
2023/08/30 00:47:07;;;;;;;6.13;5.22;;;;;;;13.72;74.69;100765.38;5010738;28;20516;-66
2023/08/30 00:49:33;;;;;;;6.47;5.78;;;;;;;13.73;74.06;100762.59;5013433;28;20029;-66
2023/08/30 00:52:02;;;;;;;7.65;5.40;;;;;;;13.47;75.30;100750.72;5012267;28;20473;-66
2023/08/30 00:54:27;;;;;;;7.32;5.63;;;;;;;13.41;75.59;100756.38;5008412;28;20117;-66
2023/08/30 00:56:54;;;;;;;7.13;5.82;;;;;;;13.35;75.21;100754.06;5010921;28;20105;-66
2023/08/30 00:59:19;;;;;;;7.20;5.57;;;;;;;13.31;75.35;100752.50;5012721;28;20469;-66
2023/08/30 01:01:45;;;;;;;8.57;5.57;;;;;;;13.37;75.39;100748.66;5013191;28;20022;-66
2023/08/30 01:04:11;;;;;;;7.68;5.35;;;;;;;13.40;75.69;100748.50;5006275;28;20023;-66
2023/08/30 01:06:36;;;;;;;8.63;6.07;;;;;;;13.49;74.81;100745.34;5008442;28;20045;-66
2023/08/30 01:09:03;;;;;;;7.90;5.25;;;;;;;13.52;74.62;100745.16;5008138;28;20036;-66
2023/08/30 01:11:49;;;;;;;7.43;5.85;;;;;;;13.60;74.33;100752.72;5010928;28;20108;-66
2023/08/30 01:14:25;;;;;;;7.75;5.00;;;;;;;13.53;74.49;100745.09;5010313;28;20029;-66
2023/08/30 01:16:51;;;;;;;11.02;6.85;;;;;;;13.55;74.03;100747.66;5007745;28;20104;-66
2023/08/30 01:19:42;;;;;;;10.13;6.93;;;;;;;13.41;74.06;100752.88;5005413;28;20489;-65
2023/08/30 01:22:17;;;;;;;9.27;6.90;;;;;;;13.26;74.17;100755.41;5003596;28;20104;-65
2023/08/30 01:25:10;;;;;;;10.15;7.00;;;;;;;13.31;74.61;100741.03;5012876;28;20030;-65
2023/08/30 01:27:37;;;;;;;9.23;6.88;;;;;;;13.35;74.47;100738.13;5007779;28;20497;-65
2023/08/30 01:30:06;;;;;;;7.20;6.13;;;;;;;13.27;74.88;100742.97;5009505;28;20026;-65
2023/08/30 01:32:34;;;;;;;8.57;6.82;;;;;;;13.08;75.29;100732.44;5014303;28;20501;-65
2023/08/30 01:35:01;;;;;;;10.75;7.15;;;;;;;13.08;75.31;100739.53;5011628;28;20022;-65
2023/08/30 01:37:27;;;;;;;9.00;6.95;;;;;;;12.52;77.47;100734.41;5006753;28;20273;-65
2023/08/30 01:39:56;;;;;;;8.90;6.82;;;;;;;12.47;78.17;100736.41;5013109;28;20018;-65
2023/08/30 01:42:23;;;;;;;6.40;5.30;;;;;;;12.72;76.96;100740.47;5007964;28;20495;-65
2023/08/30 01:44:51;;;;;;;7.85;5.40;;;;;;;12.68;77.24;100737.16;5004603;28;20601;-65
2023/08/30 01:47:18;;;;;;;7.28;5.75;;;;;;;12.76;77.15;100744.69;5010279;28;20028;-65
2023/08/30 01:49:44;;;;;;;6.28;5.28;;;;;;;12.77;76.23;100744.63;5003054;28;20044;-65
2023/08/30 01:52:10;;;;;;;7.00;5.75;;;;;;;12.77;76.78;100741.97;5001596;28;20033;-65
2023/08/30 01:54:37;;;;;;;8.15;5.45;;;;;;;12.81;76.21;100739.16;5003270;28;20496;-66
2023/08/30 01:57:03;;;;;;;8.00;5.40;;;;;;;12.82;75.98;100732.91;5005001;28;20021;-66
2023/08/30 01:59:29;;;;;;;9.32;5.97;;;;;;;12.85;76.36;100732.75;5003128;28;20076;-66
2023/08/30 02:01:55;;;;;;;7.88;5.07;;;;;;;12.74;76.52;100728.03;5001448;28;20394;-66
2023/08/30 02:04:20;;;;;;;8.00;6.00;;;;;;;12.71;77.19;100730.81;5001327;28;20037;-66
2023/08/30 02:06:54;;;;;;;10.13;6.95;;;;;;;12.56;77.81;100736.91;5003560;28;20138;-65
2023/08/30 02:09:26;;;;;;;7.90;6.28;;;;;;;12.44;77.89;100738.34;5012595;28;20505;-65
2023/08/30 02:11:53;;;;;;;10.98;6.70;;;;;;;12.40;78.15;100732.38;5000662;28;20717;-66
2023/08/30 02:14:20;;;;;;;8.68;5.75;;;;;;;12.42;78.17;100726.97;5009106;28;20059;-65
2023/08/30 02:16:47;;;;;;;8.80;6.75;;;;;;;12.42;78.61;100729.63;5005279;28;20029;-65
2023/08/30 02:19:16;;;;;;;10.13;6.72;;;;;;;12.36;79.04;100725.50;5009005;28;20477;-65
2023/08/30 02:21:42;;;;;;;7.75;5.93;;;;;;;12.30;78.63;100724.91;5003981;28;20160;-66
2023/08/30 02:24:08;;;;;;;11.68;6.90;;;;;;;12.23;79.14;100721.72;5010000;28;20076;-65
2023/08/30 02:26:33;;;;;;;10.85;7.50;;;;;;;12.09;79.12;100721.53;5009189;28;20338;-65
2023/08/30 02:28:59;;;;;;;7.78;5.90;;;;;;;12.09;79.09;100721.53;5011207;28;20508;-65
2023/08/30 02:31:24;;;;;;;7.85;5.88;;;;;;;12.17;78.48;100707.00;5012606;28;20045;-65
2023/08/30 02:33:49;;;;;;;7.30;5.63;;;;;;;12.28;78.38;100705.59;5005723;28;20048;-66
2023/08/30 02:36:14;;;;;;;8.93;5.93;;;;;;;12.38;78.23;100706.84;5003110;28;20037;-65
2023/08/30 02:38:40;;;;;;;9.10;6.40;;;;;;;12.32;78.40;100713.31;5008692;28;20033;-65
2023/08/30 02:41:05;;;;;;;10.50;7.03;;;;;;;12.30;78.36;100709.03;5009883;28;20096;-66
2023/08/30 02:43:30;;;;;;;10.00;6.40;;;;;;;12.36;78.70;100700.78;5005040;28;20041;-66
2023/08/30 02:45:56;;;;;;;9.85;6.60;;;;;;;12.45;78.19;100708.25;5009172;28;20092;-66
2023/08/30 02:48:21;;;;;;;7.13;5.72;;;;;;;12.61;77.46;100700.41;4994383;28;20485;-66
2023/08/30 02:50:46;;;;;;;7.57;5.78;;;;;;;12.86;76.36;100699.97;5006154;28;20417;-66
2023/08/30 02:53:12;;;;;;;9.00;6.50;;;;;;;12.83;76.58;100697.50;5005583;28;20121;-66
2023/08/30 02:55:37;;;;;;;12.55;6.18;;;;;;;12.60;78.00;100693.38;5012526;28;20030;-66
2023/08/30 02:58:03;;;;;;;7.65;5.10;;;;;;;12.58;78.15;100689.94;5008291;28;20525;-66
2023/08/30 03:00:28;;;;;;;5.30;4.50;;;;;;;12.55;77.88;100683.00;5002201;28;20038;-66
2023/08/30 03:02:53;;;;;;;7.30;5.43;;;;;;;12.62;77.84;100684.41;5008985;28;20075;-66
2023/08/30 03:05:19;;;;;;;7.78;5.10;;;;;;;12.65;77.71;100684.25;5004370;28;20232;-66
2023/08/30 03:07:44;;;;;;;8.13;6.07;;;;;;;12.65;78.01;100684.25;5017040;28;20042;-66
2023/08/30 03:10:11;;;;;;;7.72;5.90;;;;;;;12.55;77.66;100690.09;5003499;28;20536;-65
2023/08/30 03:12:37;;;;;;;7.15;5.63;;;;;;;12.47;78.22;100677.22;5008429;28;20030;-66
2023/08/30 03:15:04;;;;;;;7.25;5.63;;;;;;;12.51;78.26;100689.41;5009946;28;20041;-66
2023/08/30 03:17:29;;;;;;;7.07;5.90;;;;;;;12.46;78.86;100686.97;5005797;28;20034;-66
2023/08/30 03:19:54;;;;;;;8.23;6.55;;;;;;;12.43;79.55;100687.13;4989261;28;20022;-66
2023/08/30 03:22:20;;;;;;;11.13;6.72;;;;;;;12.45;79.53;100681.72;5006966;28;20033;-66
2023/08/30 03:24:45;;;;;;;9.75;7.10;;;;;;;12.43;79.94;100684.47;5007707;28;20482;-66
2023/08/30 03:27:10;;;;;;;10.38;6.65;;;;;;;12.43;80.46;100688.91;5005265;28;20672;-66
2023/08/30 03:29:35;;;;;;;11.35;7.53;;;;;;;12.56;80.24;100674.09;5004648;28;20736;-66
2023/08/30 03:32:01;;;;;;;9.60;7.35;;;;;;;12.68;80.11;100668.19;5009191;28;20067;-65
2023/08/30 03:34:26;;;;;;;10.68;7.80;;;;;;;12.66;80.50;100667.38;5012105;28;20121;-66
2023/08/30 03:36:54;;;;;;;11.23;7.47;;;;;;;12.76;81.29;100663.31;5000796;28;20037;-66
2023/08/30 03:39:20;;;;;;;9.70;7.15;;;;;;;12.90;81.23;100651.97;5012418;28;20024;-65
2023/08/30 03:41:45;;;;;;;10.18;7.53;;;;;;;12.96;80.86;100654.34;5006868;28;20452;-66
2023/08/30 03:44:11;;;;;;;8.65;7.75;;;;;;;12.97;79.70;100645.44;5009615;28;20033;-66
2023/08/30 03:46:36;;;;;;;10.95;7.63;;;;;;;13.05;80.78;100637.03;5011257;28;20033;-66
2023/08/30 03:49:03;;;;;;;12.27;7.40;;;;;;;13.07;79.89;100624.56;5008996;28;20030;-66
2023/08/30 03:51:28;;;;;;;12.95;7.95;;;;;;;13.09;79.41;100621.81;5009444;28;20040;-65
2023/08/30 03:53:56;;;;;;;11.35;7.38;;;;;;;13.15;80.32;100610.84;5003057;28;20033;-65
2023/08/30 03:56:21;;;;;;;9.07;7.15;;;;;;;13.20;79.55;100611.50;5006294;28;20052;-65
2023/08/30 03:58:46;;;;;;;11.07;7.93;;;;;;;13.25;79.29;100610.31;5006719;28;20448;-65
2023/08/30 04:01:12;;;;;;;11.70;8.20;;;;;;;13.26;79.33;100601.41;5009308;28;20033;-65
2023/08/30 04:03:37;;;;;;;11.30;7.60;;;;;;;13.26;78.80;100596.09;4988893;28;20464;-66
2023/08/30 04:06:02;;;;;;;8.25;7.22;;;;;;;13.32;80.32;100589.59;5013036;28;20056;-65
2023/08/30 04:08:27;;;;;;;12.35;8.23;;;;;;;13.33;79.49;100595.75;5012617;28;20018;-65
2023/08/30 04:10:53;;;;;;;14.30;8.45;;;;;;;13.29;79.78;100581.81;5015573;28;20038;-66
2023/08/30 04:13:18;;;;;;;11.20;7.53;;;;;;;13.32;79.98;100573.66;5003469;28;20351;-65
2023/08/30 04:15:43;;;;;;;9.90;8.00;;;;;;;13.33;81.09;100569.19;5004726;28;20034;-66
2023/08/30 04:18:09;;;;;;;10.75;7.53;;;;;;;13.28;80.28;100572.97;5011364;28;20382;-66
2023/08/30 04:20:34;;;;;;;8.35;6.72;;;;;;;13.26;80.00;100574.00;5007647;28;20038;-65
2023/08/30 04:23:04;;;;;;;9.95;7.28;;;;;;;13.22;79.53;100589.25;5007240;28;20080;-65
2023/08/30 04:25:30;;;;;;;9.25;7.22;;;;;;;13.16;79.14;100592.22;5002392;28;20306;-65
2023/08/30 04:27:56;;;;;;;10.88;8.02;;;;;;;13.13;79.28;100595.03;5007747;28;20034;-65
2023/08/30 04:30:21;;;;;;;11.15;9.00;;;;;;;13.10;79.44;100589.88;4995868;28;20488;-65
2023/08/30 04:32:47;;;;;;;11.40;8.73;;;;;;;13.10;80.12;100587.22;5006680;28;20030;-65
2023/08/30 04:35:12;;;;;;;11.68;8.95;;;;;;;13.14;80.03;100583.47;5012085;28;20067;-65
2023/08/30 04:37:39;;;;;;;14.40;10.07;;;;;;;13.20;80.93;100583.13;5002707;28;20477;-65
2023/08/30 04:40:11;;;;;;;12.43;9.40;;;;;;;13.26;80.57;100577.50;5011558;28;20072;-65
2023/08/30 04:42:37;;;;;;;14.48;10.15;;;;;;;13.33;81.08;100572.69;5005661;28;20501;-65
2023/08/30 04:45:03;;;;;;;13.63;9.48;;;;;;;13.37;80.98;100576.06;5006590;28;20077;-65
2023/08/30 04:47:30;;;;;;;12.38;9.10;;;;;;;13.40;80.50;100571.44;5008977;28;20112;-65
2023/08/30 04:49:56;;;;;;;13.23;9.15;;;;;;;13.47;80.83;100572.78;5013717;28;20045;-65
2023/08/30 04:52:21;;;;;;;14.45;8.85;;;;;;;13.52;81.40;100570.75;5017398;28;20108;-65
2023/08/30 04:54:46;;;;;;;10.68;8.73;;;;;;;13.55;81.10;100580.34;5012483;28;20091;-65
2023/08/30 04:57:16;;;;;;;14.90;9.00;;;;;;;13.59;80.73;100570.41;5008200;28;20465;-65
2023/08/30 04:59:42;;;;;;;13.02;9.15;;;;;;;13.67;80.80;100562.84;5013856;28;20029;-65
2023/08/30 05:02:07;;;;;;;16.58;9.57;;;;;;;13.71;81.01;100564.41;5008475;28;20053;-65
2023/08/30 05:04:33;;;;;;;13.70;9.57;;;;;;;13.74;80.42;100549.09;5013030;28;20030;-66
2023/08/30 05:06:58;;;;;;;12.27;9.63;;;;;;;13.77;81.14;100553.41;5010472;28;20137;-66
2023/08/30 05:09:24;;;;;;;14.05;9.43;;;;;;;13.83;80.92;100549.53;5007241;28;20029;-66
2023/08/30 05:11:51;;;;;;;13.23;10.48;;;;;;;13.82;80.94;100547.81;5008092;28;20497;-65
2023/08/30 05:14:16;;;;;;;14.52;11.23;;;;;;;13.81;82.04;100551.44;5003672;28;20052;-65
2023/08/30 05:16:41;;;;;;;18.15;11.52;;;;;;;13.76;82.13;100536.59;5006703;28;20488;-65
2023/08/30 05:19:06;;;;;;;17.20;11.18;;;;;;;13.84;82.58;100544.13;5008455;28;20026;-65
2023/08/30 05:21:32;;;;;;;14.38;10.50;;;;;;;13.86;82.05;100542.25;5002814;28;20077;-66
2023/08/30 05:23:57;;;;;;;17.05;11.73;;;;;;;13.91;83.23;100541.97;5008452;28;20120;-66
2023/08/30 05:26:22;;;;;;;13.45;11.13;;;;;;;13.97;82.23;100538.94;5005835;28;20474;-66
2023/08/30 05:28:47;;;;;;;15.73;11.38;;;;;;;14.03;82.07;100533.25;5014842;28;20140;-66
2023/08/30 05:31:13;;;;;;;15.55;11.65;;;;;;;14.04;81.75;100540.31;5007716;28;20037;-65
2023/08/30 05:33:38;;;;;;;16.25;10.50;;;;;;;14.13;82.40;100542.41;5009780;28;20478;-66
2023/08/30 05:36:03;;;;;;;15.82;11.25;;;;;;;14.22;81.70;100540.97;5003360;28;20037;-65
2023/08/30 05:38:28;;;;;;;14.15;10.65;;;;;;;14.29;81.33;100529.03;5007711;28;20269;-65
2023/08/30 05:40:54;;;;;;;16.00;11.20;;;;;;;14.35;81.95;100531.31;5010784;28;20552;-65
2023/08/30 05:43:19;;;;;;;15.05;10.57;;;;;;;14.41;82.66;100527.44;5012941;28;20101;-65
2023/08/30 05:45:44;;;;;;;14.32;10.95;;;;;;;14.45;81.75;100515.66;5012019;28;20038;-66
2023/08/30 05:48:10;;;;;;;12.95;10.52;;;;;;;14.49;81.40;100519.88;5012767;28;20014;-65
2023/08/30 05:50:35;;;;;;;16.67;11.95;;;;;;;14.48;81.63;100521.69;5006478;28;20521;-65
2023/08/30 05:53:01;;;;;;;15.55;11.23;;;;;;;14.54;80.79;100520.44;5009438;28;20120;-65
2023/08/30 05:55:26;;;;;;;15.13;11.38;;;;;;;14.59;81.29;100518.34;5017227;28;20037;-65
2023/08/30 05:57:51;;;;;;;14.50;10.68;;;;;;;14.65;81.44;100515.31;5009721;28;20025;-65
2023/08/30 06:00:17;;;;;;;14.48;10.77;;;;;;;14.72;80.41;100519.28;5006727;28;20021;-65
2023/08/30 06:02:42;;;;;;;15.50;11.40;;;;;;;14.82;80.77;100516.06;5001441;28;20022;-65
2023/08/30 06:05:08;;;;;;;14.80;10.80;;;;;;;14.89;80.44;100518.25;5014436;28;20104;-65
2023/08/30 06:07:33;;;;;;;14.65;10.35;;;;;;;14.91;80.45;100507.50;5013094;28;20072;-65
2023/08/30 06:09:59;;;;;;;13.60;10.73;;;;;;;14.96;80.38;100519.56;4991077;28;20100;-65
2023/08/30 06:12:25;;;;;;;13.55;10.15;;;;;;;14.98;80.20;100509.69;5008307;28;20026;-65
2023/08/30 06:14:52;;;;;;;12.88;9.60;;;;;;;15.00;80.51;100513.09;5006888;28;20069;-66
2023/08/30 06:17:19;;;;;;;14.23;11.18;;;;;;;15.02;80.90;100508.53;5000937;28;20045;-65
2023/08/30 06:19:45;;;;;;;13.43;9.75;;;;;;;15.05;79.77;100502.16;5004150;28;20363;-65
2023/08/30 06:22:10;;;;;;;10.95;8.77;;;;;;;15.08;79.39;100501.09;5004560;28;20030;-65
2023/08/30 06:24:36;;;;;;;11.73;9.55;;;;;;;15.06;79.18;100495.84;5004135;28;20671;-65
2023/08/30 06:27:01;;;;;;;14.48;10.10;;;;;;;15.07;79.95;100492.28;5007923;28;20063;-65
2023/08/30 06:29:26;;;;;;;11.90;9.38;;;;;;;15.06;79.76;100495.84;5012682;28;20030;-66
2023/08/30 06:31:51;;;;;;;12.55;9.57;;;;;;;15.10;80.08;100500.03;5005115;28;20529;-65
2023/08/30 06:34:17;;;;;;;12.88;9.00;;;;;;;15.10;80.16;100499.19;5008301;28;20080;-65
2023/08/30 06:36:42;;;;;;;13.68;10.20;;;;;;;15.14;81.14;100496.22;5007559;28;20036;-65
2023/08/30 06:39:07;;;;;;;12.73;10.35;;;;;;;15.10;80.08;100499.19;5013118;28;20627;-65
2023/08/30 06:41:35;;;;;;;11.45;8.57;;;;;;;15.05;77.99;100496.81;5007074;28;20481;-66
2023/08/30 06:44:01;;;;;;;9.32;8.13;;;;;;;15.11;78.67;100507.09;5007770;28;20061;-66
2023/08/30 06:46:26;;;;;;;11.45;8.10;;;;;;;15.14;77.99;100509.53;5004169;28;20096;-66
2023/08/30 06:48:51;;;;;;;10.48;7.93;;;;;;;15.18;77.53;100516.38;5009054;28;20144;-66
2023/08/30 06:51:17;;;;;;;13.27;8.60;;;;;;;15.13;78.28;100518.50;4999759;28;20269;-66
2023/08/30 06:53:42;;;;;;;12.40;8.05;;;;;;;15.12;78.63;100516.78;4999888;28;20609;-66
2023/08/30 06:56:07;;;;;;;15.95;7.82;;;;;;;15.13;78.71;100515.81;5015823;28;20033;-66
2023/08/30 06:58:33;;;;;;;12.10;8.60;;;;;;;15.11;79.32;100516.88;5002767;28;20069;-66
2023/08/30 07:00:58;;;;;;;13.48;8.45;;;;;;;15.08;78.87;100517.09;5005681;28;21019;-66
2023/08/30 07:03:23;;;;;;;12.77;8.45;;;;;;;15.04;79.59;100516.41;5009020;28;20036;-66
2023/08/30 07:05:53;;;;;;;14.57;9.70;;;;;;;15.04;80.36;100519.06;4989739;28;20049;-66
2023/08/30 07:08:19;;;;;;;13.30;9.18;;;;;;;15.03;80.07;100517.38;5004773;28;20068;-67
2023/08/30 07:10:44;;;;;;;15.10;10.18;;;;;;;14.98;80.97;100508.84;4999577;28;20056;-67
2023/08/30 07:13:12;;;;;;;12.32;10.68;;;;;;;14.75;82.96;100508.47;5001091;28;20821;-67
2023/08/30 07:15:42;;;;;;;17.92;11.55;;;;;;;14.52;84.88;100509.91;5006805;28;20597;-67
2023/08/30 07:18:08;;;;;;;17.92;11.32;;;;;;;14.47;85.57;100493.34;4992402;28;20492;-67
2023/08/30 07:20:34;;;;;;;16.60;10.52;;;;;;;14.46;86.00;100486.31;5007326;28;20029;-67
2023/08/30 07:23:00;;;;;;;17.65;11.48;;;;;;;14.41;86.09;100482.22;5007800;28;20038;-67
2023/08/30 07:25:25;;;;;;;15.35;10.70;;;;;;;14.38;87.73;100479.75;5000687;28;20033;-66
2023/08/30 07:27:50;;;;;;;15.30;10.98;;;;;;;14.36;86.98;100463.91;5006657;28;20026;-66
2023/08/30 07:30:16;;;;;;;15.65;11.48;;;;;;;14.33;87.59;100477.38;5007859;28;20084;-67
2023/08/30 07:32:42;;;;;;;17.58;11.43;;;;;;;14.29;88.33;100463.41;5005878;28;20029;-67
2023/08/30 07:35:07;;;;;;;13.70;9.90;;;;;;;14.25;87.93;100456.56;4989268;28;20057;-67
2023/08/30 07:37:34;;;;;;;15.05;10.30;;;;;;;14.23;88.97;100466.47;5010306;28;20033;-67
2023/08/30 07:39:59;;;;;;;15.60;10.18;;;;;;;14.24;88.93;100462.84;5007173;28;20030;-67
2023/08/30 07:42:24;;;;;;;14.73;9.73;;;;;;;14.30;88.69;100462.47;5014160;28;20045;-67
2023/08/30 07:44:50;;;;;;;13.55;9.68;;;;;;;14.30;88.35;100464.25;5011356;28;20052;-67
2023/08/30 07:47:15;;;;;;;14.05;9.43;;;;;;;14.35;88.59;100467.50;5011059;28;20064;-67
2023/08/30 07:49:41;;;;;;;12.95;9.65;;;;;;;14.38;88.98;100459.34;5012648;28;20083;-67
2023/08/30 07:52:08;;;;;;;13.90;9.35;;;;;;;14.45;87.98;100452.66;5012189;28;20025;-67
2023/08/30 07:54:33;;;;;;;9.52;7.68;;;;;;;14.50;87.56;100450.63;5020679;28;20051;-67
2023/08/30 07:56:58;;;;;;;11.02;8.07;;;;;;;14.49;87.81;100445.38;5009851;28;20033;-67
2023/08/30 07:59:24;;;;;;;10.10;7.47;;;;;;;14.48;88.07;100444.53;5019183;28;20045;-67
2023/08/30 08:01:49;;;;;;;11.90;8.25;;;;;;;14.54;87.64;100451.28;5009679;28;20130;-67
2023/08/30 08:04:14;;;;;;;11.90;7.30;;;;;;;14.56;88.12;100441.41;5013593;28;20032;-67
2023/08/30 08:06:39;;;;;;;11.35;6.90;;;;;;;14.62;87.87;100445.47;5012562;28;20038;-67
2023/08/30 08:09:07;;;;;;;11.82;6.93;;;;;;;14.72;87.91;100435.97;5008462;28;20493;-67
2023/08/30 08:11:32;;;;;;;8.25;6.30;;;;;;;14.72;87.73;100446.59;5006290;28;20056;-67
2023/08/30 08:13:58;;;;;;;9.32;6.60;;;;;;;14.73;87.57;100448.31;5015846;28;20521;-66
2023/08/30 08:16:23;;;;;;;8.90;5.90;;;;;;;14.82;87.00;100457.50;5011124;28;20374;-67
2023/08/30 08:18:49;;;;;;;7.20;5.72;;;;;;;14.92;86.92;100447.97;5016356;28;20060;-66
2023/08/30 08:21:14;;;;;;;8.30;6.13;;;;;;;14.90;87.22;100448.09;5011612;28;20021;-67
2023/08/30 08:23:39;;;;;;;9.93;7.63;;;;;;;14.87;87.52;100450.94;5012140;28;20073;-67
2023/08/30 08:26:05;;;;;;;9.43;6.20;;;;;;;14.85;87.44;100444.03;5014300;28;20481;-67
2023/08/30 08:28:30;;;;;;;6.20;4.65;;;;;;;14.87;87.57;100447.41;5009150;28;20029;-67
2023/08/30 08:30:55;;;;;;;7.32;5.65;;;;;;;14.89;87.89;100449.03;5013092;28;20041;-66
2023/08/30 08:33:23;;;;;;;8.52;5.50;;;;;;;14.91;87.35;100440.94;5016412;28;20037;-69
2023/08/30 08:35:49;;;;;;;7.40;5.95;;;;;;;14.85;88.11;100444.03;5009743;28;20125;-68
2023/08/30 08:38:14;;;;;;;9.00;5.93;;;;;;;14.93;88.25;100447.06;5006836;28;20053;-69
2023/08/30 08:40:40;;;;;;;10.02;5.90;;;;;;;14.95;88.41;100442.47;5015753;28;20513;-69
2023/08/30 08:43:06;;;;;;;7.43;6.07;;;;;;;14.99;88.48;100450.16;5012694;28;20478;-69
2023/08/30 08:45:35;;;;;;;8.60;5.47;;;;;;;15.05;87.84;100444.41;5017147;28;20037;-69
2023/08/30 08:48:03;;;;;;;9.93;5.45;;;;;;;15.20;87.49;100444.38;5010582;28;20014;-69
2023/08/30 08:50:29;;;;;;;8.57;6.00;;;;;;;15.22;86.96;100442.47;5019415;28;20060;-69
2023/08/30 08:52:56;;;;;;;7.20;5.70;;;;;;;15.21;87.19;100454.94;5007480;28;20025;-68
2023/08/30 08:55:21;;;;;;;11.25;5.95;;;;;;;15.22;87.14;100447.81;5013207;28;20485;-69
2023/08/30 08:57:48;;;;;;;7.35;5.65;;;;;;;15.21;87.17;100446.09;5011673;28;20083;-69
2023/08/30 09:00:13;;;;;;;5.85;5.18;;;;;;;15.18;86.93;100448.97;5005539;28;20116;-69
2023/08/30 09:02:40;;;;;;;5.45;4.40;;;;;;;15.15;87.09;100446.47;5019054;28;20018;-67
2023/08/30 09:05:07;;;;;;;6.13;4.00;;;;;;;15.19;87.15;100445.34;5006203;28;20653;-67
2023/08/30 09:07:32;;;;;;;7.05;5.00;;;;;;;15.22;86.84;100443.34;5010578;28;20077;-66
2023/08/30 09:09:58;;;;;;;7.65;4.63;;;;;;;15.66;86.16;100438.69;5007690;28;20068;-67
2023/08/30 09:12:24;;;;;;;6.32;4.63;;;;;;;15.69;85.69;100427.81;5006370;28;20451;-66
2023/08/30 09:14:56;;;;;;;5.57;4.63;;;;;;;15.87;85.97;100447.03;5010145;28;20080;-67
2023/08/30 09:17:21;;;;;;;;;;;;;;;16.31;83.51;100436.78;5011999;28;20068;-66
2023/08/30 09:19:47;;;;;;;5.05;4.28;;;;;;;15.99;85.89;100440.84;5013590;28;19957;-66
2023/08/30 09:22:12;;;;;;;6.00;4.47;;;;;;;16.18;85.44;100443.09;5009632;28;20069;-66
2023/08/30 09:24:41;;;;;;;5.07;4.47;;;;;;;16.72;83.83;100433.00;5014231;28;20463;-67
2023/08/30 09:27:07;;;;;;;5.80;4.68;;;;;;;17.14;82.65;100435.34;5005030;28;20034;-66
2023/08/30 09:29:32;;;;;;;6.85;3.97;;;;;;;17.09;81.63;100436.53;4999462;28;20056;-66
2023/08/30 09:31:58;;;;;;;5.22;4.07;;;;;;;17.11;81.42;100444.41;5005122;28;20041;-66
2023/08/30 09:34:25;;;;;;;5.78;4.82;;;;;;;16.95;82.23;100446.53;5005957;28;20489;-67
2023/08/30 09:36:50;;;;;;;6.57;4.85;;;;;;;16.86;83.06;100452.53;5011169;28;20028;-67
2023/08/30 09:39:16;;;;;;;5.43;4.22;;;;;;;16.91;81.75;100448.56;5004657;28;20046;-66
2023/08/30 09:41:42;;;;;;;5.22;4.63;;;;;;;16.89;82.22;100452.31;5008123;28;20181;-66
2023/08/30 09:44:11;;;;;;;4.70;4.30;;;;;;;16.90;82.95;100448.69;5006504;28;20091;-67
2023/08/30 09:46:44;;;;;;;7.97;4.72;;;;;;;16.74;81.86;100440.91;5010884;28;20022;-66
2023/08/30 09:51:47;;;;;;;4.55;3.90;;;;;;;16.77;82.00;100438.03;5017214;23;20062;-69
2023/08/30 09:54:23;;;;;;;6.05;4.78;;;;;;;16.67;83.14;100443.16;4983930;28;20034;-69
2023/08/30 09:56:52;;;;;;;6.07;5.40;;;;;;;16.79;83.02;100450.31;4991268;28;20109;-69
2023/08/30 09:59:18;;;;;;;4.82;4.20;;;;;;;17.17;81.14;100454.66;4986813;28;20372;-69
2023/08/30 10:01:44;;;;;;;5.53;5.03;;;;;;;17.45;80.28;100448.13;4984369;28;20022;-69
2023/08/30 10:04:10;;;;;;;6.80;5.20;;;;;;;17.84;79.65;100444.25;4993199;28;20406;-69
2023/08/30 10:06:37;;;;;;;8.60;4.93;;;;;;;18.60;76.98;100447.25;4986808;28;20057;-69
2023/08/30 10:09:04;;;;;;;5.15;4.65;;;;;;;19.03;74.96;100438.47;4993169;28;20034;-70
2023/08/30 10:11:33;;;;;;;6.53;5.13;;;;;;;19.36;72.79;100432.16;4988729;28;20042;-71
2023/08/30 10:13:59;;;;;;;6.53;5.22;;;;;;;19.37;73.17;100423.13;4983365;28;20018;-71
2023/08/30 10:16:27;;;;;;;6.97;5.72;;;;;;;19.87;71.32;100421.56;4985403;28;20037;-71
2023/08/30 10:19:07;;;;;;;4.93;4.53;;;;;;;20.79;68.00;100426.06;4983579;28;20057;-71
2023/08/30 10:21:35;;;;;;;5.05;4.57;;;;;;;21.34;65.86;100418.41;4985220;28;20393;-71
2023/08/30 10:24:03;;;;;;;5.90;5.25;;;;;;;21.50;65.00;100418.69;4983509;28;20477;-71
2023/08/30 10:26:29;;;;;;;6.45;5.68;;;;;;;21.34;64.02;100416.56;4988973;28;20501;-71
2023/08/30 10:28:56;;;;;;;6.05;5.45;;;;;;;20.80;65.38;100420.56;4994865;28;20041;-71
2023/08/30 10:31:22;;;;;;;6.15;5.50;;;;;;;20.68;65.98;100423.50;4991877;28;20477;-71
2023/08/30 10:33:54;;;;;;;7.38;5.85;;;;;;;20.47;66.70;100412.78;4989833;28;20022;-71
2023/08/30 10:36:23;;;;;;;;;;;;;;;20.81;66.55;100419.59;4988924;28;20608;-71
2023/08/30 10:38:49;;;;;;;6.13;5.63;;;;;;;20.87;64.63;100405.59;4989823;28;19922;-71
2023/08/30 10:41:20;;;;;;;6.82;6.22;;;;;;;20.89;66.19;100403.63;4987864;28;20057;-71
2023/08/30 10:43:51;;;;;;;6.85;5.70;;;;;;;20.97;64.40;100405.59;4989200;28;20034;-71
2023/08/30 10:46:16;;;;;;;7.55;5.93;;;;;;;21.79;63.70;100399.81;4991279;28;20038;-71
2023/08/30 10:48:42;;;;;;;5.35;4.85;;;;;;;22.28;59.32;100405.09;4987716;28;20611;-71
2023/08/30 10:51:25;;;;;;;6.03;5.53;;;;;;;21.91;62.44;100404.03;4990444;28;20148;-71
2023/08/30 10:53:57;;;;;;;;;;;;;;;21.62;62.54;100408.63;4993689;28;20148;-71
2023/08/30 10:56:27;;;;;;;6.95;5.60;;;;;;;21.12;63.47;100411.41;4991352;28;19918;-71
2023/08/30 10:58:53;;;;;;;6.78;6.10;;;;;;;21.02;64.98;100405.19;4996123;28;20030;-71
2023/08/30 11:01:18;;;;;;;6.18;5.57;;;;;;;20.81;64.41;100400.78;4992213;28;20151;-70
2023/08/30 11:03:44;;;;;;;7.38;6.40;;;;;;;20.86;65.03;100403.06;4987268;28;20056;-70
2023/08/30 11:06:13;;;;;;;6.00;5.40;;;;;;;20.54;64.18;100392.50;4981596;28;20453;-67
2023/08/30 11:08:39;;;;;;;6.10;5.60;;;;;;;20.19;64.13;100395.56;4984527;28;20625;-67
2023/08/30 11:11:07;;;;;;;6.82;5.85;;;;;;;20.11;65.06;100394.41;4988456;28;20037;-67
2023/08/30 11:13:32;;;;;;;6.70;6.10;;;;;;;20.21;65.87;100393.63;4988836;28;20112;-68
2023/08/30 11:16:02;;;;;;;6.90;6.20;;;;;;;20.21;65.59;100402.50;4985700;28;20058;-67
2023/08/30 11:18:27;;;;;;;7.40;6.13;;;;;;;20.30;64.53;100398.19;4989711;28;20018;-67
2023/08/30 11:20:58;;;;;;;7.15;6.45;;;;;;;20.30;64.68;100406.22;4985368;28;20034;-67